sensor_id;sensor_type;location;lat;lon;timestamp;P1;durP1;ratioP1;P2;durP2;ratioP2
22105;SDS011;11219;51.486;6.950;2022-07-10T00:00:27;145.33;;;140.73;;
22105;SDS011;11219;51.486;6.950;2022-07-10T00:02:56;139.53;;;135.13;;
22105;SDS011;11219;51.486;6.950;2022-07-10T00:05:23;156.77;;;151.60;;
22105;SDS011;11219;51.486;6.950;2022-07-10T00:07:51;142.87;;;138.33;;
22105;SDS011;11219;51.486;6.950;2022-07-10T00:10:18;158.47;;;153.47;;
22105;SDS011;11219;51.486;6.950;2022-07-10T00:12:47;160.10;;;155.10;;
22105;SDS011;11219;51.486;6.950;2022-07-10T00:15:15;166.07;;;160.87;;
22105;SDS011;11219;51.486;6.950;2022-07-10T00:17:44;167.67;;;162.43;;
22105;SDS011;11219;51.486;6.950;2022-07-10T00:20:12;165.87;;;160.70;;
22105;SDS011;11219;51.486;6.950;2022-07-10T00:22:39;162.23;;;157.20;;
22105;SDS011;11219;51.486;6.950;2022-07-10T00:25:07;146.93;;;142.30;;
22105;SDS011;11219;51.486;6.950;2022-07-10T00:27:35;179.50;;;173.83;;
22105;SDS011;11219;51.486;6.950;2022-07-10T00:30:04;168.33;;;163.07;;
22105;SDS011;11219;51.486;6.950;2022-07-10T00:32:32;185.87;;;180.07;;
22105;SDS011;11219;51.486;6.950;2022-07-10T00:34:58;182.40;;;176.70;;
22105;SDS011;11219;51.486;6.950;2022-07-10T00:37:27;179.03;;;173.40;;
22105;SDS011;11219;51.486;6.950;2022-07-10T00:39:54;179.93;;;174.23;;
22105;SDS011;11219;51.486;6.950;2022-07-10T00:42:21;184.87;;;179.13;;
22105;SDS011;11219;51.486;6.950;2022-07-10T00:44:47;195.67;;;189.47;;
22105;SDS011;11219;51.486;6.950;2022-07-10T00:47:16;176.30;;;170.83;;
22105;SDS011;11219;51.486;6.950;2022-07-10T00:49:45;170.03;;;164.77;;
22105;SDS011;11219;51.486;6.950;2022-07-10T00:52:15;176.07;;;170.63;;
22105;SDS011;11219;51.486;6.950;2022-07-10T00:54:45;185.33;;;179.53;;
22105;SDS011;11219;51.486;6.950;2022-07-10T00:57:15;187.77;;;181.90;;
22105;SDS011;11219;51.486;6.950;2022-07-10T00:59:43;164.80;;;159.60;;
22105;SDS011;11219;51.486;6.950;2022-07-10T01:02:11;173.40;;;168.03;;
22105;SDS011;11219;51.486;6.950;2022-07-10T01:04:40;178.53;;;172.93;;
22105;SDS011;11219;51.486;6.950;2022-07-10T01:07:07;179.97;;;174.40;;
22105;SDS011;11219;51.486;6.950;2022-07-10T01:09:34;166.80;;;161.60;;
22105;SDS011;11219;51.486;6.950;2022-07-10T01:12:02;179.63;;;173.20;;
22105;SDS011;11219;51.486;6.950;2022-07-10T01:14:29;182.93;;;177.13;;
22105;SDS011;11219;51.486;6.950;2022-07-10T01:16:57;161.13;;;156.07;;
22105;SDS011;11219;51.486;6.950;2022-07-10T01:19:24;185.57;;;179.77;;
22105;SDS011;11219;51.486;6.950;2022-07-10T01:21:52;176.90;;;171.33;;
22105;SDS011;11219;51.486;6.950;2022-07-10T01:24:19;183.83;;;178.17;;
22105;SDS011;11219;51.486;6.950;2022-07-10T01:26:46;182.60;;;176.87;;
22105;SDS011;11219;51.486;6.950;2022-07-10T01:29:14;169.20;;;163.97;;
22105;SDS011;11219;51.486;6.950;2022-07-10T01:31:41;173.27;;;167.93;;
22105;SDS011;11219;51.486;6.950;2022-07-10T01:34:08;169.20;;;163.97;;
22105;SDS011;11219;51.486;6.950;2022-07-10T01:36:36;166.60;;;161.40;;
22105;SDS011;11219;51.486;6.950;2022-07-10T01:39:06;149.50;;;144.77;;
22105;SDS011;11219;51.486;6.950;2022-07-10T01:41:33;176.50;;;171.00;;
22105;SDS011;11219;51.486;6.950;2022-07-10T01:44:00;183.50;;;177.87;;
22105;SDS011;11219;51.486;6.950;2022-07-10T01:46:27;170.00;;;164.63;;
22105;SDS011;11219;51.486;6.950;2022-07-10T01:48:54;174.80;;;169.43;;
22105;SDS011;11219;51.486;6.950;2022-07-10T01:51:21;174.37;;;169.00;;
22105;SDS011;11219;51.486;6.950;2022-07-10T01:53:48;165.97;;;160.87;;
22105;SDS011;11219;51.486;6.950;2022-07-10T01:56:16;176.80;;;171.30;;
22105;SDS011;11219;51.486;6.950;2022-07-10T01:58:43;169.43;;;164.17;;
22105;SDS011;11219;51.486;6.950;2022-07-10T02:01:10;187.03;;;181.20;;
22105;SDS011;11219;51.486;6.950;2022-07-10T02:03:37;175.00;;;169.53;;
22105;SDS011;11219;51.486;6.950;2022-07-10T02:06:22;147.87;;;142.90;;
22105;SDS011;11219;51.486;6.950;2022-07-10T02:08:49;179.40;;;173.80;;
22105;SDS011;11219;51.486;6.950;2022-07-10T02:11:18;170.30;;;164.97;;
22105;SDS011;11219;51.486;6.950;2022-07-10T02:13:45;139.57;;;135.23;;
22105;SDS011;11219;51.486;6.950;2022-07-10T02:16:13;146.47;;;141.90;;
22105;SDS011;11219;51.486;6.950;2022-07-10T02:18:40;165.03;;;159.93;;
22105;SDS011;11219;51.486;6.950;2022-07-10T02:21:07;163.80;;;158.73;;
22105;SDS011;11219;51.486;6.950;2022-07-10T02:23:34;150.30;;;145.50;;
22105;SDS011;11219;51.486;6.950;2022-07-10T02:26:01;165.73;;;160.57;;
22105;SDS011;11219;51.486;6.950;2022-07-10T02:28:30;151.90;;;147.03;;
22105;SDS011;11219;51.486;6.950;2022-07-10T02:30:57;156.47;;;151.43;;
22105;SDS011;11219;51.486;6.950;2022-07-10T02:33:24;169.57;;;164.07;;
22105;SDS011;11219;51.486;6.950;2022-07-10T02:35:51;130.17;;;126.07;;
22105;SDS011;11219;51.486;6.950;2022-07-10T02:38:18;155.50;;;150.67;;
22105;SDS011;11219;51.486;6.950;2022-07-10T02:40:45;154.07;;;149.30;;
22105;SDS011;11219;51.486;6.950;2022-07-10T02:43:12;153.97;;;149.13;;
22105;SDS011;11219;51.486;6.950;2022-07-10T02:45:40;148.80;;;144.13;;
22105;SDS011;11219;51.486;6.950;2022-07-10T02:48:07;146.57;;;142.03;;
22105;SDS011;11219;51.486;6.950;2022-07-10T02:50:34;150.30;;;145.57;;
22105;SDS011;11219;51.486;6.950;2022-07-10T02:53:01;137.17;;;132.87;;
22105;SDS011;11219;51.486;6.950;2022-07-10T02:55:28;153.17;;;148.47;;
22105;SDS011;11219;51.486;6.950;2022-07-10T02:57:57;163.03;;;157.93;;
22105;SDS011;11219;51.486;6.950;2022-07-10T03:00:24;149.80;;;145.10;;
22105;SDS011;11219;51.486;6.950;2022-07-10T03:02:53;152.67;;;147.93;;
22105;SDS011;11219;51.486;6.950;2022-07-10T03:05:20;150.70;;;146.00;;
22105;SDS011;11219;51.486;6.950;2022-07-10T03:07:47;160.10;;;154.77;;
22105;SDS011;11219;51.486;6.950;2022-07-10T03:10:13;156.70;;;151.83;;
22105;SDS011;11219;51.486;6.950;2022-07-10T03:12:40;148.70;;;144.03;;
22105;SDS011;11219;51.486;6.950;2022-07-10T03:15:07;146.50;;;141.77;;
22105;SDS011;11219;51.486;6.950;2022-07-10T03:17:35;158.53;;;153.60;;
22105;SDS011;11219;51.486;6.950;2022-07-10T03:20:04;150.77;;;146.07;;
22105;SDS011;11219;51.486;6.950;2022-07-10T03:22:32;139.27;;;134.90;;
22105;SDS011;11219;51.486;6.950;2022-07-10T03:24:59;150.83;;;146.17;;
22105;SDS011;11219;51.486;6.950;2022-07-10T03:27:25;152.73;;;148.03;;
22105;SDS011;11219;51.486;6.950;2022-07-10T03:29:52;132.17;;;127.90;;
22105;SDS011;11219;51.486;6.950;2022-07-10T03:32:19;173.07;;;167.77;;
22105;SDS011;11219;51.486;6.950;2022-07-10T03:34:46;157.97;;;153.00;;
22105;SDS011;11219;51.486;6.950;2022-07-10T03:37:15;153.90;;;149.07;;
22105;SDS011;11219;51.486;6.950;2022-07-10T03:39:42;137.40;;;133.10;;
22105;SDS011;11219;51.486;6.950;2022-07-10T03:42:08;127.67;;;123.63;;
22105;SDS011;11219;51.486;6.950;2022-07-10T03:44:35;125.60;;;121.63;;
22105;SDS011;11219;51.486;6.950;2022-07-10T03:47:02;141.87;;;137.37;;
22105;SDS011;11219;51.486;6.950;2022-07-10T03:49:30;123.67;;;119.73;;
22105;SDS011;11219;51.486;6.950;2022-07-10T03:51:58;142.70;;;138.20;;
22105;SDS011;11219;51.486;6.950;2022-07-10T03:54:27;147.93;;;143.30;;
22105;SDS011;11219;51.486;6.950;2022-07-10T03:56:55;133.17;;;128.93;;
22105;SDS011;11219;51.486;6.950;2022-07-10T03:59:39;143.17;;;138.70;;
22105;SDS011;11219;51.486;6.950;2022-07-10T04:02:07;145.07;;;140.53;;
22105;SDS011;11219;51.486;6.950;2022-07-10T04:04:34;144.80;;;140.30;;
22105;SDS011;11219;51.486;6.950;2022-07-10T04:07:01;150.77;;;146.10;;
22105;SDS011;11219;51.486;6.950;2022-07-10T04:09:30;157.83;;;152.93;;
22105;SDS011;11219;51.486;6.950;2022-07-10T04:11:57;149.63;;;144.97;;
22105;SDS011;11219;51.486;6.950;2022-07-10T04:14:24;156.70;;;151.87;;
22105;SDS011;11219;51.486;6.950;2022-07-10T04:16:51;154.77;;;149.97;;
22105;SDS011;11219;51.486;6.950;2022-07-10T04:19:18;167.97;;;162.83;;
22105;SDS011;11219;51.486;6.950;2022-07-10T04:21:47;170.10;;;164.90;;
22105;SDS011;11219;51.486;6.950;2022-07-10T04:24:14;173.00;;;167.70;;
22105;SDS011;11219;51.486;6.950;2022-07-10T04:26:42;172.63;;;167.17;;
22105;SDS011;11219;51.486;6.950;2022-07-10T04:29:09;170.53;;;165.30;;
22105;SDS011;11219;51.486;6.950;2022-07-10T04:31:36;167.97;;;162.80;;
22105;SDS011;11219;51.486;6.950;2022-07-10T04:34:03;173.93;;;168.60;;
22105;SDS011;11219;51.486;6.950;2022-07-10T04:36:30;159.77;;;154.83;;
22105;SDS011;11219;51.486;6.950;2022-07-10T04:38:57;156.73;;;151.93;;
22105;SDS011;11219;51.486;6.950;2022-07-10T04:41:24;160.57;;;155.57;;
22105;SDS011;11219;51.486;6.950;2022-07-10T04:43:52;158.47;;;153.53;;
22105;SDS011;11219;51.486;6.950;2022-07-10T04:46:19;145.13;;;140.63;;
22105;SDS011;11219;51.486;6.950;2022-07-10T04:48:46;155.33;;;150.50;;
22105;SDS011;11219;51.486;6.950;2022-07-10T04:51:13;159.77;;;154.80;;
22105;SDS011;11219;51.486;6.950;2022-07-10T04:53:40;148.50;;;143.83;;
22105;SDS011;11219;51.486;6.950;2022-07-10T04:56:07;175.03;;;169.63;;
22105;SDS011;11219;51.486;6.950;2022-07-10T04:58:34;143.03;;;138.53;;
22105;SDS011;11219;51.486;6.950;2022-07-10T05:01:02;173.13;;;167.77;;
22105;SDS011;11219;51.486;6.950;2022-07-10T05:03:29;164.77;;;159.70;;
22105;SDS011;11219;51.486;6.950;2022-07-10T05:05:56;179.13;;;173.67;;
22105;SDS011;11219;51.486;6.950;2022-07-10T05:08:23;158.13;;;153.17;;
22105;SDS011;11219;51.486;6.950;2022-07-10T05:10:50;181.37;;;175.73;;
22105;SDS011;11219;51.486;6.950;2022-07-10T05:13:16;182.30;;;176.70;;
22105;SDS011;11219;51.486;6.950;2022-07-10T05:15:45;189.00;;;183.20;;
22105;SDS011;11219;51.486;6.950;2022-07-10T05:18:13;192.77;;;186.83;;
22105;SDS011;11219;51.486;6.950;2022-07-10T05:20:41;183.27;;;177.57;;
22105;SDS011;11219;51.486;6.950;2022-07-10T05:23:10;193.70;;;187.73;;
22105;SDS011;11219;51.486;6.950;2022-07-10T05:25:37;210.83;;;204.37;;
22105;SDS011;11219;51.486;6.950;2022-07-10T05:28:05;164.53;;;159.43;;
22105;SDS011;11219;51.486;6.950;2022-07-10T05:30:32;267.90;;;259.57;;
22105;SDS011;11219;51.486;6.950;2022-07-10T05:32:59;191.63;;;185.70;;
22105;SDS011;11219;51.486;6.950;2022-07-10T05:35:28;195.13;;;189.17;;
22105;SDS011;11219;51.486;6.950;2022-07-10T05:37:55;201.30;;;195.10;;
22105;SDS011;11219;51.486;6.950;2022-07-10T05:40:21;253.13;;;245.40;;
22105;SDS011;11219;51.486;6.950;2022-07-10T05:42:49;250.47;;;242.77;;
22105;SDS011;11219;51.486;6.950;2022-07-10T05:45:16;172.00;;;166.70;;
22105;SDS011;11219;51.486;6.950;2022-07-10T05:47:43;170.97;;;165.73;;
22105;SDS011;11219;51.486;6.950;2022-07-10T05:50:10;165.83;;;160.67;;
22105;SDS011;11219;51.486;6.950;2022-07-10T05:52:39;160.57;;;155.47;;
22105;SDS011;11219;51.486;6.950;2022-07-10T05:55:06;205.43;;;199.10;;
22105;SDS011;11219;51.486;6.950;2022-07-10T05:57:34;143.33;;;138.83;;
22105;SDS011;11219;51.486;6.950;2022-07-10T06:00:01;100.63;;;97.43;;
22105;SDS011;11219;51.486;6.950;2022-07-10T06:02:30;178.73;;;173.17;;
22105;SDS011;11219;51.486;6.950;2022-07-10T06:04:57;190.70;;;184.83;;
22105;SDS011;11219;51.486;6.950;2022-07-10T06:07:24;204.73;;;198.40;;
22105;SDS011;11219;51.486;6.950;2022-07-10T06:09:53;211.20;;;204.60;;
22105;SDS011;11219;51.486;6.950;2022-07-10T06:12:20;244.87;;;237.20;;
22105;SDS011;11219;51.486;6.950;2022-07-10T06:14:47;179.37;;;173.80;;
22105;SDS011;11219;51.486;6.950;2022-07-10T06:17:13;195.27;;;189.13;;
22105;SDS011;11219;51.486;6.950;2022-07-10T06:19:45;174.83;;;169.37;;
22105;SDS011;11219;51.486;6.950;2022-07-10T06:22:12;211.27;;;204.63;;
22105;SDS011;11219;51.486;6.950;2022-07-10T06:24:59;157.63;;;152.70;;
22105;SDS011;11219;51.486;6.950;2022-07-10T06:27:27;189.13;;;183.07;;
22105;SDS011;11219;51.486;6.950;2022-07-10T06:29:54;198.73;;;192.47;;
22105;SDS011;11219;51.486;6.950;2022-07-10T06:32:21;167.40;;;162.20;;
22105;SDS011;11219;51.486;6.950;2022-07-10T06:34:50;237.80;;;230.20;;
22105;SDS011;11219;51.486;6.950;2022-07-10T06:37:17;198.33;;;192.03;;
22105;SDS011;11219;51.486;6.950;2022-07-10T06:39:44;163.30;;;158.20;;
22105;SDS011;11219;51.486;6.950;2022-07-10T06:42:14;178.73;;;173.10;;
22105;SDS011;11219;51.486;6.950;2022-07-10T06:44:42;191.07;;;185.17;;
22105;SDS011;11219;51.486;6.950;2022-07-10T06:47:09;202.17;;;195.80;;
22105;SDS011;11219;51.486;6.950;2022-07-10T06:49:54;184.80;;;179.00;;
22105;SDS011;11219;51.486;6.950;2022-07-10T06:52:21;183.63;;;177.83;;
22105;SDS011;11219;51.486;6.950;2022-07-10T06:54:49;208.50;;;201.97;;
22105;SDS011;11219;51.486;6.950;2022-07-10T06:57:17;214.10;;;207.47;;
22105;SDS011;11219;51.486;6.950;2022-07-10T06:59:44;172.73;;;167.37;;
22105;SDS011;11219;51.486;6.950;2022-07-10T07:02:11;153.93;;;149.13;;
22105;SDS011;11219;51.486;6.950;2022-07-10T07:04:38;171.70;;;166.30;;
22105;SDS011;11219;51.486;6.950;2022-07-10T07:07:05;202.07;;;195.80;;
22105;SDS011;11219;51.486;6.950;2022-07-10T07:09:32;197.27;;;191.13;;
22105;SDS011;11219;51.486;6.950;2022-07-10T07:11:59;218.00;;;211.17;;
22105;SDS011;11219;51.486;6.950;2022-07-10T07:14:27;185.20;;;179.20;;
22105;SDS011;11219;51.486;6.950;2022-07-10T07:16:54;194.47;;;188.40;;
22105;SDS011;11219;51.486;6.950;2022-07-10T07:19:26;211.53;;;204.93;;
22105;SDS011;11219;51.486;6.950;2022-07-10T07:21:57;223.83;;;216.83;;
22105;SDS011;11219;51.486;6.950;2022-07-10T07:24:41;197.87;;;190.00;;
22105;SDS011;11219;51.486;6.950;2022-07-10T07:27:09;205.90;;;199.57;;
22105;SDS011;11219;51.486;6.950;2022-07-10T07:29:37;196.47;;;190.17;;
22105;SDS011;11219;51.486;6.950;2022-07-10T07:32:04;222.60;;;215.63;;
22105;SDS011;11219;51.486;6.950;2022-07-10T07:34:32;195.23;;;188.93;;
22105;SDS011;11219;51.486;6.950;2022-07-10T07:36:58;204.67;;;198.17;;
22105;SDS011;11219;51.486;6.950;2022-07-10T07:39:25;219.40;;;212.40;;
22105;SDS011;11219;51.486;6.950;2022-07-10T07:41:52;196.83;;;190.60;;
22105;SDS011;11219;51.486;6.950;2022-07-10T07:44:19;241.47;;;233.73;;
22105;SDS011;11219;51.486;6.950;2022-07-10T07:46:47;240.17;;;232.47;;
22105;SDS011;11219;51.486;6.950;2022-07-10T07:49:14;295.57;;;285.70;;
22105;SDS011;11219;51.486;6.950;2022-07-10T07:51:41;340.37;;;328.63;;
22105;SDS011;11219;51.486;6.950;2022-07-10T07:54:08;361.87;;;349.43;;
22105;SDS011;11219;51.486;6.950;2022-07-10T07:56:34;414.23;;;399.33;;
22105;SDS011;11219;51.486;6.950;2022-07-10T07:59:01;361.57;;;348.97;;
22105;SDS011;11219;51.486;6.950;2022-07-10T08:01:28;385.37;;;371.70;;
22105;SDS011;11219;51.486;6.950;2022-07-10T08:03:56;303.70;;;293.37;;
22105;SDS011;11219;51.486;6.950;2022-07-10T08:06:23;343.90;;;332.10;;
22105;SDS011;11219;51.486;6.950;2022-07-10T08:08:50;322.97;;;312.30;;
22105;SDS011;11219;51.486;6.950;2022-07-10T08:11:17;305.23;;;295.50;;
22105;SDS011;11219;51.486;6.950;2022-07-10T08:13:44;281.37;;;272.30;;
22105;SDS011;11219;51.486;6.950;2022-07-10T08:16:11;299.80;;;289.97;;
22105;SDS011;11219;51.486;6.950;2022-07-10T08:18:38;270.00;;;261.27;;
22105;SDS011;11219;51.486;6.950;2022-07-10T08:21:06;269.40;;;260.37;;
22105;SDS011;11219;51.486;6.950;2022-07-10T08:23:33;220.87;;;214.00;;
22105;SDS011;11219;51.486;6.950;2022-07-10T08:26:00;217.47;;;210.57;;
22105;SDS011;11219;51.486;6.950;2022-07-10T08:28:26;229.33;;;222.13;;
22105;SDS011;11219;51.486;6.950;2022-07-10T08:30:53;215.70;;;208.83;;
22105;SDS011;11219;51.486;6.950;2022-07-10T08:33:20;252.20;;;243.93;;
22105;SDS011;11219;51.486;6.950;2022-07-10T08:35:47;282.20;;;272.97;;
22105;SDS011;11219;51.486;6.950;2022-07-10T08:38:15;272.80;;;263.90;;
22105;SDS011;11219;51.486;6.950;2022-07-10T08:40:42;292.67;;;283.00;;
22105;SDS011;11219;51.486;6.950;2022-07-10T08:43:10;278.77;;;269.63;;
22105;SDS011;11219;51.486;6.950;2022-07-10T08:45:37;357.27;;;345.03;;
22105;SDS011;11219;51.486;6.950;2022-07-10T08:48:07;344.73;;;332.90;;
22105;SDS011;11219;51.486;6.950;2022-07-10T08:50:37;347.63;;;335.60;;
22105;SDS011;11219;51.486;6.950;2022-07-10T08:53:07;434.87;;;418.93;;
22105;SDS011;11219;51.486;6.950;2022-07-10T08:55:39;345.70;;;334.30;;
22105;SDS011;11219;51.486;6.950;2022-07-10T08:58:07;261.67;;;253.67;;
22105;SDS011;11219;51.486;6.950;2022-07-10T09:00:35;418.00;;;403.20;;
22105;SDS011;11219;51.486;6.950;2022-07-10T09:03:02;394.20;;;380.90;;
22105;SDS011;11219;51.486;6.950;2022-07-10T09:05:29;328.20;;;317.23;;
22105;SDS011;11219;51.486;6.950;2022-07-10T09:07:57;273.60;;;265.03;;
22105;SDS011;11219;51.486;6.950;2022-07-10T09:10:24;177.57;;;171.97;;
22105;SDS011;11219;51.486;6.950;2022-07-10T09:12:54;270.27;;;261.77;;
22105;SDS011;11219;51.486;6.950;2022-07-10T09:15:23;204.70;;;198.30;;
22105;SDS011;11219;51.486;6.950;2022-07-10T09:17:52;136.63;;;132.37;;
22105;SDS011;11219;51.486;6.950;2022-07-10T09:20:26;248.60;;;240.47;;
22105;SDS011;11219;51.486;6.950;2022-07-10T09:22:55;187.17;;;181.37;;
22105;SDS011;11219;51.486;6.950;2022-07-10T09:25:28;320.73;;;309.90;;
22105;SDS011;11219;51.486;6.950;2022-07-10T09:27:58;350.53;;;338.43;;
22105;SDS011;11219;51.486;6.950;2022-07-10T09:30:34;232.70;;;225.43;;
22105;SDS011;11219;51.486;6.950;2022-07-10T09:33:18;324.37;;;313.47;;
22105;SDS011;11219;51.486;6.950;2022-07-10T09:36:00;198.67;;;192.43;;
22105;SDS011;11219;51.486;6.950;2022-07-10T09:41:21;417.40;;;402.33;;
22105;SDS011;11219;51.486;6.950;2022-07-10T09:43:51;427.70;;;412.47;;
22105;SDS011;11219;51.486;6.950;2022-07-10T09:46:21;430.77;;;415.30;;
22105;SDS011;11219;51.486;6.950;2022-07-10T09:49:00;410.43;;;396.13;;
22105;SDS011;11219;51.486;6.950;2022-07-10T09:51:35;444.43;;;428.57;;
22105;SDS011;11219;51.486;6.950;2022-07-10T09:54:03;295.93;;;286.57;;
22105;SDS011;11219;51.486;6.950;2022-07-10T09:56:41;314.73;;;304.50;;
22105;SDS011;11219;51.486;6.950;2022-07-10T09:59:12;354.17;;;341.93;;
22105;SDS011;11219;51.486;6.950;2022-07-10T10:01:43;296.50;;;286.73;;
22105;SDS011;11219;51.486;6.950;2022-07-10T10:04:12;243.00;;;235.37;;
22105;SDS011;11219;51.486;6.950;2022-07-10T10:06:40;382.83;;;369.30;;
22105;SDS011;11219;51.486;6.950;2022-07-10T10:09:08;391.10;;;377.33;;
22105;SDS011;11219;51.486;6.950;2022-07-10T10:11:42;491.83;;;472.77;;
22105;SDS011;11219;51.486;6.950;2022-07-10T10:14:12;500.20;;;481.03;;
22105;SDS011;11219;51.486;6.950;2022-07-10T10:16:42;450.17;;;433.37;;
22105;SDS011;11219;51.486;6.950;2022-07-10T10:19:11;432.60;;;416.40;;
22105;SDS011;11219;51.486;6.950;2022-07-10T10:21:57;447.27;;;430.63;;
22105;SDS011;11219;51.486;6.950;2022-07-10T10:24:25;444.00;;;427.40;;
22105;SDS011;11219;51.486;6.950;2022-07-10T10:26:57;516.43;;;496.60;;
22105;SDS011;11219;51.486;6.950;2022-07-10T10:29:26;535.40;;;513.90;;
22105;SDS011;11219;51.486;6.950;2022-07-10T10:31:53;597.10;;;571.53;;
22105;SDS011;11219;51.486;6.950;2022-07-10T10:40:03;431.67;;;415.17;;
22105;SDS011;11219;51.486;6.950;2022-07-10T10:42:31;439.67;;;422.20;;
22105;SDS011;11219;51.486;6.950;2022-07-10T10:47:59;516.70;;;496.43;;
22105;SDS011;11219;51.486;6.950;2022-07-10T10:50:37;484.73;;;466.07;;
22105;SDS011;11219;51.486;6.950;2022-07-10T10:53:14;520.27;;;500.63;;
22105;SDS011;11219;51.486;6.950;2022-07-10T10:58:42;410.23;;;395.60;;
22105;SDS011;11219;51.486;6.950;2022-07-10T11:01:24;371.63;;;359.00;;
22105;SDS011;11219;51.486;6.950;2022-07-10T11:06:42;498.37;;;479.20;;
22105;SDS011;11219;51.486;6.950;2022-07-10T11:09:26;592.63;;;568.07;;
22105;SDS011;11219;51.486;6.950;2022-07-10T11:12:04;555.37;;;533.07;;
22105;SDS011;11219;51.486;6.950;2022-07-10T11:14:32;566.53;;;543.07;;
22105;SDS011;11219;51.486;6.950;2022-07-10T11:17:01;421.50;;;406.10;;
22105;SDS011;11219;51.486;6.950;2022-07-10T11:19:30;380.03;;;366.83;;
22105;SDS011;11219;51.486;6.950;2022-07-10T11:22:11;264.03;;;255.40;;
22105;SDS011;11219;51.486;6.950;2022-07-10T11:24:51;293.73;;;283.83;;
22105;SDS011;11219;51.486;6.950;2022-07-10T11:27:42;400.43;;;385.97;;
22105;SDS011;11219;51.486;6.950;2022-07-10T11:30:23;495.33;;;475.70;;
22105;SDS011;11219;51.486;6.950;2022-07-10T11:32:52;487.43;;;468.40;;
22105;SDS011;11219;51.486;6.950;2022-07-10T11:35:19;557.40;;;533.47;;
22105;SDS011;11219;51.486;6.950;2022-07-10T11:37:49;616.27;;;590.40;;
22105;SDS011;11219;51.486;6.950;2022-07-10T11:40:17;635.10;;;607.27;;
22105;SDS011;11219;51.486;6.950;2022-07-10T11:42:49;621.33;;;593.87;;
22105;SDS011;11219;51.486;6.950;2022-07-10T11:45:24;531.57;;;509.97;;
22105;SDS011;11219;51.486;6.950;2022-07-10T11:47:53;517.47;;;497.63;;
22105;SDS011;11219;51.486;6.950;2022-07-10T11:50:21;503.87;;;484.40;;
22105;SDS011;11219;51.486;6.950;2022-07-10T11:52:48;433.07;;;417.47;;
22105;SDS011;11219;51.486;6.950;2022-07-10T11:55:16;480.20;;;461.30;;
22105;SDS011;11219;51.486;6.950;2022-07-10T11:57:43;513.07;;;491.93;;
22105;SDS011;11219;51.486;6.950;2022-07-10T12:00:23;583.10;;;559.60;;
22105;SDS011;11219;51.486;6.950;2022-07-10T12:02:53;584.00;;;559.17;;
22105;SDS011;11219;51.486;6.950;2022-07-10T12:05:33;581.07;;;557.30;;
22105;SDS011;11219;51.486;6.950;2022-07-10T12:08:02;620.57;;;593.93;;
22105;SDS011;11219;51.486;6.950;2022-07-10T12:10:31;527.37;;;505.33;;
22105;SDS011;11219;51.486;6.950;2022-07-10T12:13:03;295.47;;;285.50;;
22105;SDS011;11219;51.486;6.950;2022-07-10T12:15:31;281.30;;;272.00;;
22105;SDS011;11219;51.486;6.950;2022-07-10T12:18:00;218.73;;;211.73;;
22105;SDS011;11219;51.486;6.950;2022-07-10T12:20:27;299.97;;;290.10;;
22105;SDS011;11219;51.486;6.950;2022-07-10T12:22:54;393.20;;;377.67;;
22105;SDS011;11219;51.486;6.950;2022-07-10T12:25:21;506.20;;;485.87;;
22105;SDS011;11219;51.486;6.950;2022-07-10T12:27:50;569.73;;;546.23;;
22105;SDS011;11219;51.486;6.950;2022-07-10T12:30:22;590.07;;;565.73;;
22105;SDS011;11219;51.486;6.950;2022-07-10T12:32:49;601.37;;;576.00;;
22105;SDS011;11219;51.486;6.950;2022-07-10T12:35:17;573.50;;;549.40;;
22105;SDS011;11219;51.486;6.950;2022-07-10T12:37:48;478.10;;;459.87;;
22105;SDS011;11219;51.486;6.950;2022-07-10T12:40:31;387.87;;;374.73;;
22105;SDS011;11219;51.486;6.950;2022-07-10T12:43:01;327.13;;;315.97;;
22105;SDS011;11219;51.486;6.950;2022-07-10T12:45:28;363.13;;;350.67;;
22105;SDS011;11219;51.486;6.950;2022-07-10T12:47:55;355.47;;;343.43;;
22105;SDS011;11219;51.486;6.950;2022-07-10T12:50:24;267.10;;;258.50;;
22105;SDS011;11219;51.486;6.950;2022-07-10T12:53:06;158.63;;;153.63;;
22105;SDS011;11219;51.486;6.950;2022-07-10T12:55:34;157.87;;;152.87;;
22105;SDS011;11219;51.486;6.950;2022-07-10T12:58:06;133.67;;;129.40;;
22105;SDS011;11219;51.486;6.950;2022-07-10T13:00:42;144.53;;;139.87;;
22105;SDS011;11219;51.486;6.950;2022-07-10T13:03:11;142.50;;;137.95;;
22105;SDS011;11219;51.486;6.950;2022-07-10T13:05:46;200.40;;;193.97;;
22105;SDS011;11219;51.486;6.950;2022-07-10T13:08:14;118.82;;;115.07;;
22105;SDS011;11219;51.486;6.950;2022-07-10T13:10:44;100.10;;;96.88;;
22105;SDS011;11219;51.486;6.950;2022-07-10T13:13:13;135.35;;;131.07;;
22105;SDS011;11219;51.486;6.950;2022-07-10T13:15:42;139.80;;;135.30;;
22105;SDS011;11219;51.486;6.950;2022-07-10T13:18:14;135.60;;;131.32;;
22105;SDS011;11219;51.486;6.950;2022-07-10T13:20:43;171.23;;;165.93;;
22105;SDS011;11219;51.486;6.950;2022-07-10T13:23:11;213.00;;;206.32;;
22105;SDS011;11219;51.486;6.950;2022-07-10T13:25:38;258.95;;;250.60;;
22105;SDS011;11219;51.486;6.950;2022-07-10T13:28:06;200.23;;;193.98;;
22105;SDS011;11219;51.486;6.950;2022-07-10T13:30:34;251.60;;;243.75;;
22105;SDS011;11219;51.486;6.950;2022-07-10T13:33:01;154.70;;;149.80;;
22105;SDS011;11219;51.486;6.950;2022-07-10T13:35:28;204.23;;;197.73;;
22105;SDS011;11219;51.486;6.950;2022-07-10T13:37:55;159.73;;;154.73;;
22105;SDS011;11219;51.486;6.950;2022-07-10T13:40:26;161.30;;;156.25;;
22105;SDS011;11219;51.486;6.950;2022-07-10T13:42:53;208.10;;;201.60;;
22105;SDS011;11219;51.486;6.950;2022-07-10T13:45:21;237.57;;;230.15;;
22105;SDS011;11219;51.486;6.950;2022-07-10T13:47:48;189.38;;;183.38;;
22105;SDS011;11219;51.486;6.950;2022-07-10T13:50:15;153.60;;;148.80;;
22105;SDS011;11219;51.486;6.950;2022-07-10T13:52:42;255.98;;;247.70;;
22105;SDS011;11219;51.486;6.950;2022-07-10T13:55:09;291.88;;;282.67;;
22105;SDS011;11219;51.486;6.950;2022-07-10T13:57:38;266.13;;;257.80;;
22105;SDS011;11219;51.486;6.950;2022-07-10T14:00:06;224.63;;;217.60;;
22105;SDS011;11219;51.486;6.950;2022-07-10T14:02:33;209.05;;;202.57;;
22105;SDS011;11219;51.486;6.950;2022-07-10T14:05:00;282.17;;;273.40;;
22105;SDS011;11219;51.486;6.950;2022-07-10T14:07:27;223.30;;;216.20;;
22105;SDS011;11219;51.486;6.950;2022-07-10T14:09:54;359.60;;;347.45;;
22105;SDS011;11219;51.486;6.950;2022-07-10T14:12:21;295.55;;;285.85;;
22105;SDS011;11219;51.486;6.950;2022-07-10T14:14:50;371.67;;;358.90;;
22105;SDS011;11219;51.486;6.950;2022-07-10T14:17:16;420.95;;;405.92;;
22105;SDS011;11219;51.486;6.950;2022-07-10T14:19:43;484.80;;;466.50;;
22105;SDS011;11219;51.486;6.950;2022-07-10T14:22:10;479.10;;;461.23;;